sensor_id;sensor_type;location;lat;lon;timestamp;pressure;altitude;pressure_sealevel;temperature;humidity
43757;BME280;73222;41.866;12.462;2024-02-21T00:01:49;101727.78;;;9.01;100.00
43757;BME280;73222;41.866;12.462;2024-02-21T00:04:15;101728.06;;;9.10;100.00
43757;BME280;73222;41.866;12.462;2024-02-21T00:06:41;101728.06;;;9.10;100.00
43757;BME280;73222;41.866;12.462;2024-02-21T00:09:07;101729.72;;;9.08;100.00
43757;BME280;73222;41.866;12.462;2024-02-21T00:11:34;101722.72;;;9.04;100.00
43757;BME280;73222;41.866;12.462;2024-02-21T00:14:00;101721.94;;;9.06;100.00
43757;BME280;73222;41.866;12.462;2024-02-21T00:16:25;101722.63;;;9.01;100.00
43757;BME280;73222;41.866;12.462;2024-02-21T00:18:51;101726.16;;;9.03;100.00
43757;BME280;73222;41.866;12.462;2024-02-21T00:21:16;101729.38;;;8.96;100.00
43757;BME280;73222;41.866;12.462;2024-02-21T00:23:46;101737.97;;;8.95;100.00
43757;BME280;73222;41.866;12.462;2024-02-21T00:26:12;101734.38;;;8.89;100.00
43757;BME280;73222;41.866;12.462;2024-02-21T00:28:38;101739.47;;;8.88;100.00
43757;BME280;73222;41.866;12.462;2024-02-21T00:31:04;101735.94;;;8.84;100.00
43757;BME280;73222;41.866;12.462;2024-02-21T00:33:30;101746.19;;;8.81;100.00
43757;BME280;73222;41.866;12.462;2024-02-21T00:35:55;101742.59;;;8.76;100.00
43757;BME280;73222;41.866;12.462;2024-02-21T00:38:21;101747.75;;;8.76;100.00
43757;BME280;73222;41.866;12.462;2024-02-21T00:40:46;101744.63;;;8.86;100.00
43757;BME280;73222;41.866;12.462;2024-02-21T00:43:11;101745.53;;;8.88;100.00
43757;BME280;73222;41.866;12.462;2024-02-21T00:45:37;101740.72;;;9.01;100.00
43757;BME280;73222;41.866;12.462;2024-02-21T00:48:02;101745.59;;;8.90;100.00
43757;BME280;73222;41.866;12.462;2024-02-21T00:50:29;101739.47;;;8.86;100.00
43757;BME280;73222;41.866;12.462;2024-02-21T00:52:55;101740.44;;;8.91;100.00
43757;BME280;73222;41.866;12.462;2024-02-21T00:55:20;101740.44;;;8.91;100.00
43757;BME280;73222;41.866;12.462;2024-02-21T00:57:45;101734.28;;;8.86;100.00
43757;BME280;73222;41.866;12.462;2024-02-21T01:00:11;101734.13;;;8.80;100.00
43757;BME280;73222;41.866;12.462;2024-02-21T01:02:37;101727.00;;;8.73;100.00
43757;BME280;73222;41.866;12.462;2024-02-21T01:05:02;101726.25;;;8.77;100.00
43757;BME280;73222;41.866;12.462;2024-02-21T01:07:28;101729.53;;;8.71;100.00
43757;BME280;73222;41.866;12.462;2024-02-21T01:09:53;101730.09;;;8.61;100.00
43757;BME280;73222;41.866;12.462;2024-02-21T01:12:18;101725.53;;;8.52;100.00
43757;BME280;73222;41.866;12.462;2024-02-21T01:14:44;101722.88;;;8.50;100.00
43757;BME280;73222;41.866;12.462;2024-02-21T01:17:11;101729.66;;;8.47;100.00
43757;BME280;73222;41.866;12.462;2024-02-21T01:19:36;101728.78;;;8.46;100.00
43757;BME280;73222;41.866;12.462;2024-02-21T01:22:02;101724.38;;;8.44;100.00
43757;BME280;73222;41.866;12.462;2024-02-21T01:24:28;101724.69;;;8.53;100.00
43757;BME280;73222;41.866;12.462;2024-02-21T01:26:53;101732.44;;;8.53;100.00
43757;BME280;73222;41.866;12.462;2024-02-21T01:29:18;101733.38;;;8.55;100.00
43757;BME280;73222;41.866;12.462;2024-02-21T01:31:44;101730.75;;;8.54;100.00
43757;BME280;73222;41.866;12.462;2024-02-21T01:34:09;101723.78;;;8.51;100.00
43757;BME280;73222;41.866;12.462;2024-02-21T01:36:34;101727.38;;;8.56;100.00
43757;BME280;73222;41.866;12.462;2024-02-21T01:39:00;101720.94;;;8.71;100.00
43757;BME280;73222;41.866;12.462;2024-02-21T01:41:25;101728.69;;;8.71;100.00
43757;BME280;73222;41.866;12.462;2024-02-21T01:43:51;101734.50;;;8.63;100.00
43757;BME280;73222;41.866;12.462;2024-02-21T01:46:16;101730.69;;;8.52;100.00
43757;BME280;73222;41.866;12.462;2024-02-21T01:48:42;101732.19;;;8.45;100.00
43757;BME280;73222;41.866;12.462;2024-02-21T01:51:08;101733.06;;;8.46;100.00
43757;BME280;73222;41.866;12.462;2024-02-21T01:53:36;101735.34;;;8.36;100.00
43757;BME280;73222;41.866;12.462;2024-02-21T01:56:03;101734.22;;;8.28;100.00
43757;BME280;73222;41.866;12.462;2024-02-21T01:58:30;101730.94;;;8.32;100.00
43757;BME280;73222;41.866;12.462;2024-02-21T02:00:57;101727.44;;;8.30;100.00
43757;BME280;73222;41.866;12.462;2024-02-21T02:03:23;101730.25;;;8.38;100.00
43757;BME280;73222;41.866;12.462;2024-02-21T02:05:49;101719.22;;;8.44;100.00
43757;BME280;73222;41.866;12.462;2024-02-21T02:08:16;101731.28;;;8.45;100.00
43757;BME280;73222;41.866;12.462;2024-02-21T02:10:43;101726.84;;;8.39;100.00
43757;BME280;73222;41.866;12.462;2024-02-21T02:13:08;101733.16;;;8.49;100.00
43757;BME280;73222;41.866;12.462;2024-02-21T02:15:45;101726.38;;;8.51;100.00
43757;BME280;73222;41.866;12.462;2024-02-21T02:18:11;101728.00;;;8.49;100.00
43757;BME280;73222;41.866;12.462;2024-02-21T02:20:37;101732.25;;;8.47;100.00
43757;BME280;73222;41.866;12.462;2024-02-21T02:23:32;101728.22;;;8.55;100.00
43757;BME280;73222;41.866;12.462;2024-02-21T02:25:58;101724.38;;;8.42;100.00
43757;BME280;73222;41.866;12.462;2024-02-21T02:28:24;101725.00;;;8.35;100.00
43757;BME280;73222;41.866;12.462;2024-02-21T02:30:50;101725.22;;;8.43;100.00
43757;BME280;73222;41.866;12.462;2024-02-21T02:33:16;101726.59;;;8.31;100.00
43757;BME280;73222;41.866;12.462;2024-02-21T02:35:44;101728.06;;;8.23;100.00
43757;BME280;73222;41.866;12.462;2024-02-21T02:38:11;101729.75;;;8.22;100.00
43757;BME280;73222;41.866;12.462;2024-02-21T02:40:41;101734.69;;;8.15;100.00
43757;BME280;73222;41.866;12.462;2024-02-21T02:43:07;101732.13;;;8.15;100.00
43757;BME280;73222;41.866;12.462;2024-02-21T02:45:32;101736.16;;;8.06;100.00
43757;BME280;73222;41.866;12.462;2024-02-21T02:47:58;101732.81;;;8.10;100.00
43757;BME280;73222;41.866;12.462;2024-02-21T02:50:24;101738.81;;;8.09;100.00
43757;BME280;73222;41.866;12.462;2024-02-21T02:52:50;101740.34;;;8.04;100.00
43757;BME280;73222;41.866;12.462;2024-02-21T02:55:15;101746.97;;;7.96;100.00
43757;BME280;73222;41.866;12.462;2024-02-21T02:57:41;101750.50;;;7.98;100.00
43757;BME280;73222;41.866;12.462;2024-02-21T03:00:07;101752.03;;;7.93;100.00
43757;BME280;73222;41.866;12.462;2024-02-21T03:02:34;101754.00;;;8.00;100.00
43757;BME280;73222;41.866;12.462;2024-02-21T03:04:59;101743.59;;;7.97;100.00
43757;BME280;73222;41.866;12.462;2024-02-21T03:07:25;101751.22;;;7.94;100.00
43757;BME280;73222;41.866;12.462;2024-02-21T03:09:50;101756.28;;;7.91;100.00
43757;BME280;73222;41.866;12.462;2024-02-21T03:12:16;101753.69;;;7.91;100.00
43757;BME280;73222;41.866;12.462;2024-02-21T03:14:50;101753.78;;;7.94;100.00
43757;BME280;73222;41.866;12.462;2024-02-21T03:17:15;101758.72;;;7.86;100.00
43757;BME280;73222;41.866;12.462;2024-02-21T03:19:40;101756.28;;;7.91;100.00
43757;BME280;73222;41.866;12.462;2024-02-21T03:22:06;101757.72;;;7.82;100.00
43757;BME280;73222;41.866;12.462;2024-02-21T03:24:31;101762.75;;;7.79;100.00
43757;BME280;73222;41.866;12.462;2024-02-21T03:26:56;101751.75;;;7.83;100.00
43757;BME280;73222;41.866;12.462;2024-02-21T03:29:24;101754.31;;;7.83;100.00
43757;BME280;73222;41.866;12.462;2024-02-21T03:31:49;101757.00;;;7.87;100.00
43757;BME280;73222;41.866;12.462;2024-02-21T03:34:14;101755.31;;;7.89;100.00
43757;BME280;73222;41.866;12.462;2024-02-21T03:36:40;101754.31;;;7.83;100.00
43757;BME280;73222;41.866;12.462;2024-02-21T03:39:05;101755.91;;;7.80;100.00
43757;BME280;73222;41.866;12.462;2024-02-21T03:41:31;101753.41;;;7.81;100.00
43757;BME280;73222;41.866;12.462;2024-02-21T03:43:56;101760.34;;;7.84;100.00
43757;BME280;73222;41.866;12.462;2024-02-21T03:46:23;101759.25;;;7.77;100.00
43757;BME280;73222;41.866;12.462;2024-02-21T03:48:49;101755.75;;;7.75;100.00
43757;BME280;73222;41.866;12.462;2024-02-21T03:51:15;101757.97;;;7.64;100.00
43757;BME280;73222;41.866;12.462;2024-02-21T03:53:40;101756.91;;;7.59;100.00
43757;BME280;73222;41.866;12.462;2024-02-21T03:56:06;101768.13;;;7.60;100.00
43757;BME280;73222;41.866;12.462;2024-02-21T03:58:32;101770.84;;;7.64;100.00
43757;BME280;73222;41.866;12.462;2024-02-21T04:01:01;101771.53;;;7.59;100.00
43757;BME280;73222;41.866;12.462;2024-02-21T04:03:27;101769.09;;;7.63;100.00
43757;BME280;73222;41.866;12.462;2024-02-21T04:05:53;101774.31;;;7.65;100.00
43757;BME280;73222;41.866;12.462;2024-02-21T04:08:18;101773.38;;;7.63;100.00
43757;BME280;73222;41.866;12.462;2024-02-21T04:10:43;101783.59;;;7.60;100.00
43757;BME280;73222;41.866;12.462;2024-02-21T04:13:09;101780.94;;;7.58;100.00
43757;BME280;73222;41.866;12.462;2024-02-21T04:15:34;101785.34;;;7.61;100.00
43757;BME280;73222;41.866;12.462;2024-02-21T04:18:00;101782.44;;;7.51;100.00
43757;BME280;73222;41.866;12.462;2024-02-21T04:20:25;101783.13;;;7.47;100.00
43757;BME280;73222;41.866;12.462;2024-02-21T04:22:51;101790.25;;;7.54;100.00
43757;BME280;73222;41.866;12.462;2024-02-21T04:25:16;101788.28;;;7.47;100.00
43757;BME280;73222;41.866;12.462;2024-02-21T04:27:42;101790.03;;;7.48;100.00
43757;BME280;73222;41.866;12.462;2024-02-21T04:30:08;101791.38;;;7.37;100.00
43757;BME280;73222;41.866;12.462;2024-02-21T04:32:35;101788.09;;;7.41;100.00
43757;BME280;73222;41.866;12.462;2024-02-21T04:35:00;101788.97;;;7.41;100.00
43757;BME280;73222;41.866;12.462;2024-02-21T04:37:26;101784.69;;;7.42;100.00
43757;BME280;73222;41.866;12.462;2024-02-21T04:39:51;101782.06;;;7.40;100.00
43757;BME280;73222;41.866;12.462;2024-02-21T04:42:17;101787.75;;;7.32;100.00
43757;BME280;73222;41.866;12.462;2024-02-21T04:44:42;101791.13;;;7.31;100.00
43757;BME280;73222;41.866;12.462;2024-02-21T04:47:08;101788.53;;;7.29;100.00
43757;BME280;73222;41.866;12.462;2024-02-21T04:49:34;101795.38;;;7.28;100.00
43757;BME280;73222;41.866;12.462;2024-02-21T04:51:59;101793.50;;;7.24;100.00
43757;BME280;73222;41.866;12.462;2024-02-21T04:54:25;101789.94;;;7.21;100.00
43757;BME280;73222;41.866;12.462;2024-02-21T04:56:51;101794.13;;;7.17;100.00
43757;BME280;73222;41.866;12.462;2024-02-21T04:59:16;101798.13;;;7.10;100.00
43757;BME280;73222;41.866;12.462;2024-02-21T05:01:42;101797.28;;;7.10;100.00
43757;BME280;73222;41.866;12.462;2024-02-21T05:04:07;101782.44;;;7.04;100.00
43757;BME280;73222;41.866;12.462;2024-02-21T05:06:39;101788.38;;;7.01;100.00
43757;BME280;73222;41.866;12.462;2024-02-21T05:09:06;101789.38;;;7.05;100.00
43757;BME280;73222;41.866;12.462;2024-02-21T05:11:31;101792.22;;;7.13;100.00
43757;BME280;73222;41.866;12.462;2024-02-21T05:13:56;101792.75;;;7.04;100.00
43757;BME280;73222;41.866;12.462;2024-02-21T05:16:22;101792.75;;;7.04;100.00
43757;BME280;73222;41.866;12.462;2024-02-21T05:18:48;101800.19;;;6.96;100.00
43757;BME280;73222;41.866;12.462;2024-02-21T05:21:13;101811.91;;;6.88;100.00
43757;BME280;73222;41.866;12.462;2024-02-21T05:23:38;101808.50;;;6.89;100.00
43757;BME280;73222;41.866;12.462;2024-02-21T05:26:05;101811.16;;;6.91;100.00
43757;BME280;73222;41.866;12.462;2024-02-21T05:28:30;101813.41;;;6.83;100.00
43757;BME280;73222;41.866;12.462;2024-02-21T05:30:56;101820.19;;;6.81;100.00
43757;BME280;73222;41.866;12.462;2024-02-21T05:33:21;101823.84;;;6.86;100.00
43757;BME280;73222;41.866;12.462;2024-02-21T05:35:47;101820.84;;;6.75;100.00
43757;BME280;73222;41.866;12.462;2024-02-21T05:38:15;101819.84;;;6.71;100.00
43757;BME280;73222;41.866;12.462;2024-02-21T05:40:41;101821.94;;;6.59;100.00
43757;BME280;73222;41.866;12.462;2024-02-21T05:43:09;101822.09;;;6.64;100.00
43757;BME280;73222;41.866;12.462;2024-02-21T05:45:34;101825.41;;;6.59;100.00
43757;BME280;73222;41.866;12.462;2024-02-21T05:48:00;101824.66;;;6.62;100.00
43757;BME280;73222;41.866;12.462;2024-02-21T05:50:25;101825.41;;;6.59;100.00
43757;BME280;73222;41.866;12.462;2024-02-21T05:52:53;101833.00;;;6.56;100.00
43757;BME280;73222;41.866;12.462;2024-02-21T05:55:19;101832.03;;;6.54;100.00
43757;BME280;73222;41.866;12.462;2024-02-21T05:57:44;101828.03;;;6.61;100.00
43757;BME280;73222;41.866;12.462;2024-02-21T06:00:10;101836.53;;;6.60;100.00
43757;BME280;73222;41.866;12.462;2024-02-21T06:02:35;101823.09;;;6.67;100.00
43757;BME280;73222;41.866;12.462;2024-02-21T06:05:00;101825.19;;;6.76;100.00
43757;BME280;73222;41.866;12.462;2024-02-21T06:07:26;101826.50;;;6.66;100.00
43757;BME280;73222;41.866;12.462;2024-02-21T06:09:51;101836.13;;;6.70;100.00
43757;BME280;73222;41.866;12.462;2024-02-21T06:12:17;101832.16;;;6.79;100.00
43757;BME280;73222;41.866;12.462;2024-02-21T06:14:42;101836.66;;;6.84;100.00
43757;BME280;73222;41.866;12.462;2024-02-21T06:17:10;101839.50;;;6.92;100.00
43757;BME280;73222;41.866;12.462;2024-02-21T06:19:36;101842.28;;;6.97;100.00
43757;BME280;73222;41.866;12.462;2024-02-21T06:22:01;101842.47;;;7.01;100.00
43757;BME280;73222;41.866;12.462;2024-02-21T06:24:26;101840.06;;;7.53;100.00
43757;BME280;73222;41.866;12.462;2024-02-21T06:26:52;101828.13;;;8.59;100.00
43757;BME280;73222;41.866;12.462;2024-02-21T06:29:17;101841.03;;;9.79;100.00
43757;BME280;73222;41.866;12.462;2024-02-21T06:31:42;101834.69;;;10.70;100.00
43757;BME280;73222;41.866;12.462;2024-02-21T06:34:08;101840.06;;;11.19;100.00
43757;BME280;73222;41.866;12.462;2024-02-21T06:36:33;101843.06;;;11.39;100.00
43757;BME280;73222;41.866;12.462;2024-02-21T06:38:59;101838.44;;;12.15;100.00
43757;BME280;73222;41.866;12.462;2024-02-21T06:41:24;101843.06;;;12.32;100.00
43757;BME280;73222;41.866;12.462;2024-02-21T06:43:50;101844.81;;;12.93;100.00
43757;BME280;73222;41.866;12.462;2024-02-21T06:46:26;101854.19;;;13.45;100.00
43757;BME280;73222;41.866;12.462;2024-02-21T06:48:52;101850.38;;;13.21;98.79
43757;BME280;73222;41.866;12.462;2024-02-21T06:51:17;101864.28;;;14.00;95.92
43757;BME280;73222;41.866;12.462;2024-02-21T06:53:43;101868.88;;;14.28;92.67
43757;BME280;73222;41.866;12.462;2024-02-21T06:56:09;101867.97;;;14.23;90.04
43757;BME280;73222;41.866;12.462;2024-02-21T06:58:34;101871.34;;;15.41;84.46
43757;BME280;73222;41.866;12.462;2024-02-21T07:01:00;101875.00;;;16.16;76.91
43757;BME280;73222;41.866;12.462;2024-02-21T07:03:25;101874.16;;;16.14;71.52
43757;BME280;73222;41.866;12.462;2024-02-21T07:05:51;101876.69;;;16.86;67.16
43757;BME280;73222;41.866;12.462;2024-02-21T07:08:16;101881.09;;;16.42;67.68
43757;BME280;73222;41.866;12.462;2024-02-21T07:10:41;101886.22;;;17.27;63.13
43757;BME280;73222;41.866;12.462;2024-02-21T07:13:07;101888.56;;;17.76;55.98
43757;BME280;73222;41.866;12.462;2024-02-21T07:15:32;101890.22;;;17.95;55.78
43757;BME280;73222;41.866;12.462;2024-02-21T07:17:58;101890.31;;;17.80;52.48
43757;BME280;73222;41.866;12.462;2024-02-21T07:20:24;101891.84;;;18.15;51.64
43757;BME280;73222;41.866;12.462;2024-02-21T07:22:50;101893.53;;;18.19;50.91
43757;BME280;73222;41.866;12.462;2024-02-21T07:25:15;101881.03;;;18.56;50.06
43757;BME280;73222;41.866;12.462;2024-02-21T07:27:41;101880.88;;;18.71;49.18
43757;BME280;73222;41.866;12.462;2024-02-21T07:30:07;101885.53;;;19.27;47.06
43757;BME280;73222;41.866;12.462;2024-02-21T07:32:33;101894.25;;;19.29;44.98
43757;BME280;73222;41.866;12.462;2024-02-21T07:34:58;101896.53;;;19.56;43.18
43757;BME280;73222;41.866;12.462;2024-02-21T07:37:23;101904.78;;;19.95;41.44
43757;BME280;73222;41.866;12.462;2024-02-21T07:39:49;101902.34;;;20.38;40.07
43757;BME280;73222;41.866;12.462;2024-02-21T07:42:14;101912.72;;;20.47;40.17
43757;BME280;73222;41.866;12.462;2024-02-21T07:44:41;101911.06;;;21.80;37.15
43757;BME280;73222;41.866;12.462;2024-02-21T07:47:06;101909.69;;;20.70;38.11
43757;BME280;73222;41.866;12.462;2024-02-21T07:49:32;101912.84;;;20.91;38.04
43757;BME280;73222;41.866;12.462;2024-02-21T07:52:00;101917.81;;;20.56;37.93
43757;BME280;73222;41.866;12.462;2024-02-21T07:54:25;101919.22;;;21.69;36.22
43757;BME280;73222;41.866;12.462;2024-02-21T07:56:51;101904.47;;;21.59;35.92
43757;BME280;73222;41.866;12.462;2024-02-21T07:59:16;101919.47;;;21.96;34.97
43757;BME280;73222;41.866;12.462;2024-02-21T08:01:42;101922.72;;;22.07;34.90
43757;BME280;73222;41.866;12.462;2024-02-21T08:04:08;101923.69;;;22.03;34.27
43757;BME280;73222;41.866;12.462;2024-02-21T08:06:33;101928.94;;;22.05;34.79
43757;BME280;73222;41.866;12.462;2024-02-21T08:08:59;101929.34;;;22.60;33.02
43757;BME280;73222;41.866;12.462;2024-02-21T08:11:25;101941.75;;;22.91;33.04
43757;BME280;73222;41.866;12.462;2024-02-21T08:13:51;101928.59;;;23.22;32.97
43757;BME280;73222;41.866;12.462;2024-02-21T08:16:16;101929.69;;;23.14;31.95
43757;BME280;73222;41.866;12.462;2024-02-21T08:18:44;101931.66;;;23.39;32.39
43757;BME280;73222;41.866;12.462;2024-02-21T08:21:09;101929.75;;;23.44;31.91
43757;BME280;73222;41.866;12.462;2024-02-21T08:23:35;101924.72;;;24.49;30.37
43757;BME280;73222;41.866;12.462;2024-02-21T08:26:03;101929.72;;;24.32;29.93
43757;BME280;73222;41.866;12.462;2024-02-21T08:28:31;101928.28;;;24.48;29.91
43757;BME280;73222;41.866;12.462;2024-02-21T08:30:56;101931.06;;;25.68;29.20
43757;BME280;73222;41.866;12.462;2024-02-21T08:33:22;101926.59;;;25.46;28.48
43757;BME280;73222;41.866;12.462;2024-02-21T08:35:51;101923.47;;;25.34;28.63
43757;BME280;73222;41.866;12.462;2024-02-21T08:38:16;101927.97;;;25.56;28.06
43757;BME280;73222;41.866;12.462;2024-02-21T08:40:42;101928.84;;;24.83;28.82
43757;BME280;73222;41.866;12.462;2024-02-21T08:43:07;101921.97;;;25.27;28.32
43757;BME280;73222;41.866;12.462;2024-02-21T08:45:33;101930.81;;;26.18;27.79
43757;BME280;73222;41.866;12.462;2024-02-21T08:47:58;101928.72;;;25.82;27.43
43757;BME280;73222;41.866;12.462;2024-02-21T08:50:23;101932.44;;;26.23;27.26
43757;BME280;73222;41.866;12.462;2024-02-21T08:52:49;101936.25;;;26.79;26.31
43757;BME280;73222;41.866;12.462;2024-02-21T08:55:14;101938.47;;;26.90;25.74
43757;BME280;73222;41.866;12.462;2024-02-21T08:57:39;101942.81;;;27.12;25.20
43757;BME280;73222;41.866;12.462;2024-02-21T09:00:05;101948.81;;;27.75;24.59
43757;BME280;73222;41.866;12.462;2024-02-21T09:02:40;101942.47;;;27.39;25.20
43757;BME280;73222;41.866;12.462;2024-02-21T09:05:06;101945.03;;;27.61;25.24
43757;BME280;73222;41.866;12.462;2024-02-21T09:07:31;101940.09;;;27.13;25.09
43757;BME280;73222;41.866;12.462;2024-02-21T09:09:57;101941.91;;;28.07;24.44
43757;BME280;73222;41.866;12.462;2024-02-21T09:12:22;101938.47;;;27.68;24.55
43757;BME280;73222;41.866;12.462;2024-02-21T09:14:48;101942.13;;;27.85;24.52
43757;BME280;73222;41.866;12.462;2024-02-21T09:17:16;101942.44;;;28.69;23.35
43757;BME280;73222;41.866;12.462;2024-02-21T09:19:43;101938.66;;;28.73;24.18
43757;BME280;73222;41.866;12.462;2024-02-21T09:22:11;101934.91;;;29.60;23.24
43757;BME280;73222;41.866;12.462;2024-02-21T09:24:37;101935.91;;;29.90;22.97
43757;BME280;73222;41.866;12.462;2024-02-21T09:27:02;101937.56;;;30.23;21.96
43757;BME280;73222;41.866;12.462;2024-02-21T09:29:27;101933.88;;;29.63;22.60
43757;BME280;73222;41.866;12.462;2024-02-21T09:31:53;101927.47;;;29.82;22.60
43757;BME280;73222;41.866;12.462;2024-02-21T09:34:18;101935.41;;;31.19;20.72
43757;BME280;73222;41.866;12.462;2024-02-21T09:36:44;101932.94;;;31.01;21.35
43757;BME280;73222;41.866;12.462;2024-02-21T09:39:10;101927.56;;;28.47;22.81
43757;BME280;73222;41.866;12.462;2024-02-21T09:41:42;101935.31;;;28.87;23.07
43757;BME280;73222;41.866;12.462;2024-02-21T09:44:12;101936.75;;;30.07;22.08
43757;BME280;73222;41.866;12.462;2024-02-21T09:46:55;101942.41;;;30.00;21.34
43757;BME280;73222;41.866;12.462;2024-02-21T09:49:35;101943.41;;;29.83;21.60
43757;BME280;73222;41.866;12.462;2024-02-21T09:52:03;101943.94;;;29.08;21.76
43757;BME280;73222;41.866;12.462;2024-02-21T09:54:30;101942.03;;;29.60;21.98
43757;BME280;73222;41.866;12.462;2024-02-21T09:57:02;101950.03;;;29.76;22.34
43757;BME280;73222;41.866;12.462;2024-02-21T09:59:28;101945.16;;;29.34;22.39
43757;BME280;73222;41.866;12.462;2024-02-21T10:01:55;101953.00;;;30.49;21.54
43757;BME280;73222;41.866;12.462;2024-02-21T10:04:21;101951.66;;;31.01;20.56
43757;BME280;73222;41.866;12.462;2024-02-21T10:06:46;101951.25;;;31.22;20.27
43757;BME280;73222;41.866;12.462;2024-02-21T10:09:23;101948.22;;;30.84;20.26
43757;BME280;73222;41.866;12.462;2024-02-21T10:11:49;101955.38;;;30.98;20.62
43757;BME280;73222;41.866;12.462;2024-02-21T10:14:15;101958.97;;;32.90;18.97
43757;BME280;73222;41.866;12.462;2024-02-21T10:16:41;101958.16;;;31.68;19.72
43757;BME280;73222;41.866;12.462;2024-02-21T10:19:16;101950.94;;;32.64;19.21
43757;BME280;73222;41.866;12.462;2024-02-21T10:21:41;101955.09;;;32.02;19.20
43757;BME280;73222;41.866;12.462;2024-02-21T10:24:07;101955.59;;;32.21;19.45
43757;BME280;73222;41.866;12.462;2024-02-21T10:26:32;101949.94;;;33.30;18.60
43757;BME280;73222;41.866;12.462;2024-02-21T10:28:58;101954.50;;;33.78;18.41
43757;BME280;73222;41.866;12.462;2024-02-21T10:31:27;101946.66;;;33.13;18.80
43757;BME280;73222;41.866;12.462;2024-02-21T10:33:54;101944.28;;;32.83;18.00
43757;BME280;73222;41.866;12.462;2024-02-21T10:36:20;101937.38;;;32.27;19.03
43757;BME280;73222;41.866;12.462;2024-02-21T10:38:45;101942.47;;;31.49;19.24
43757;BME280;73222;41.866;12.462;2024-02-21T10:41:13;101943.44;;;31.33;19.45
43757;BME280;73222;41.866;12.462;2024-02-21T10:43:40;101934.22;;;32.47;18.01
43757;BME280;73222;41.866;12.462;2024-02-21T10:46:06;101931.81;;;32.17;18.58
43757;BME280;73222;41.866;12.462;2024-02-21T10:51:32;101939.78;;;32.83;18.29
43757;BME280;73222;41.866;12.462;2024-02-21T10:56:48;101936.16;;;32.97;17.75
43757;BME280;73222;41.866;12.462;2024-02-21T10:59:14;101927.47;;;32.81;18.25
43757;BME280;73222;41.866;12.462;2024-02-21T11:01:42;101927.66;;;33.41;18.35
43757;BME280;73222;41.866;12.462;2024-02-21T11:04:08;101918.13;;;32.99;18.33
43757;BME280;73222;41.866;12.462;2024-02-21T11:06:38;101917.47;;;32.96;18.27
43757;BME280;73222;41.866;12.462;2024-02-21T11:09:08;101916.22;;;33.88;17.69
43757;BME280;73222;41.866;12.462;2024-02-21T11:11:54;101911.84;;;34.34;17.21
43757;BME280;73222;41.866;12.462;2024-02-21T11:14:26;101908.72;;;34.04;17.41
43757;BME280;73222;41.866;12.462;2024-02-21T11:16:52;101908.03;;;34.84;16.80
43757;BME280;73222;41.866;12.462;2024-02-21T11:19:28;101902.22;;;34.43;16.61
43757;BME280;73222;41.866;12.462;2024-02-21T11:21:55;101901.84;;;34.36;15.97
43757;BME280;73222;41.866;12.462;2024-02-21T11:24:31;101895.69;;;35.59;16.59
43757;BME280;73222;41.866;12.462;2024-02-21T11:27:16;101890.75;;;34.98;16.08
43757;BME280;73222;41.866;12.462;2024-02-21T11:29:49;101889.56;;;34.67;17.09
43757;BME280;73222;41.866;12.462;2024-02-21T11:32:19;101891.31;;;35.80;16.55
43757;BME280;73222;41.866;12.462;2024-02-21T11:37:20;101875.09;;;34.23;16.72
43757;BME280;73222;41.866;12.462;2024-02-21T11:39:45;101873.50;;;33.96;16.62
43757;BME280;73222;41.866;12.462;2024-02-21T11:42:10;101880.25;;;34.49;16.95
43757;BME280;73222;41.866;12.462;2024-02-21T11:44:38;101873.44;;;34.56;17.06
43757;BME280;73222;41.866;12.462;2024-02-21T11:47:04;101869.72;;;34.46;16.51
43757;BME280;73222;41.866;12.462;2024-02-21T11:49:30;101862.66;;;35.46;16.17
43757;BME280;73222;41.866;12.462;2024-02-21T11:52:03;101853.06;;;35.53;16.27
43757;BME280;73222;41.866;12.462;2024-02-21T11:54:32;101853.84;;;35.11;17.04
43757;BME280;73222;41.866;12.462;2024-02-21T11:56:58;101842.25;;;34.76;17.06
43757;BME280;73222;41.866;12.462;2024-02-21T11:59:24;101847.34;;;35.46;16.06
43757;BME280;73222;41.866;12.462;2024-02-21T12:01:49;101841.72;;;35.82;14.79
43757;BME280;73222;41.866;12.462;2024-02-21T12:04:17;101838.78;;;37.20;14.51
43757;BME280;73222;41.866;12.462;2024-02-21T12:06:45;101827.63;;;35.25;16.32
43757;BME280;73222;41.866;12.462;2024-02-21T12:09:14;101825.69;;;35.27;15.44
43757;BME280;73222;41.866;12.462;2024-02-21T12:11:40;101816.63;;;35.49;15.25
43757;BME280;73222;41.866;12.462;2024-02-21T12:14:05;101810.44;;;35.70;15.11
43757;BME280;73222;41.866;12.462;2024-02-21T12:16:32;101809.84;;;34.78;16.03
43757;BME280;73222;41.866;12.462;2024-02-21T12:18:58;101819.59;;;37.23;14.12
43757;BME280;73222;41.866;12.462;2024-02-21T12:21:30;101818.06;;;35.32;14.92
43757;BME280;73222;41.866;12.462;2024-02-21T12:23:55;101812.47;;;35.99;14.81
43757;BME280;73222;41.866;12.462;2024-02-21T12:26:22;101805.69;;;35.83;14.09
43757;BME280;73222;41.866;12.462;2024-02-21T12:28:48;101798.06;;;35.02;14.66
43757;BME280;73222;41.866;12.462;2024-02-21T12:31:13;101799.97;;;35.55;14.64
43757;BME280;73222;41.866;12.462;2024-02-21T12:33:39;101791.41;;;37.06;12.92
43757;BME280;73222;41.866;12.462;2024-02-21T12:36:04;101793.50;;;36.32;13.92
43757;BME280;73222;41.866;12.462;2024-02-21T12:38:30;101783.97;;;36.59;13.79
43757;BME280;73222;41.866;12.462;2024-02-21T12:40:55;101789.78;;;36.01;13.93
43757;BME280;73222;41.866;12.462;2024-02-21T12:43:22;101781.81;;;36.21;13.76
43757;BME280;73222;41.866;12.462;2024-02-21T12:45:48;101777.78;;;35.30;13.76